createdAt,value
2023-08-07T05:21:55.327Z,99082.91
2023-08-07T07:00:37.744Z,99148.91
2023-08-07T07:01:15.181Z,99153.72
2023-08-07T07:01:57.810Z,99158.50
2023-08-07T07:20:12.443Z,99159.94
2023-08-07T07:21:13.947Z,99159.66
2023-08-07T07:26:27.376Z,99166.84
2023-08-07T07:28:02.520Z,99165.66
2023-08-07T07:30:08.905Z,99165.75
2023-08-07T07:40:10.782Z,99168.69
2023-08-07T07:43:30.567Z,99166.09
2023-08-07T07:49:04.732Z,99165.47
2023-08-07T07:50:03.388Z,99173.06
2023-08-07T07:51:18.740Z,99176.44
2023-08-07T07:52:13.652Z,99177.84
2023-08-07T07:54:13.732Z,99179.84
2023-08-07T07:55:24.479Z,99182.69
2023-08-07T07:56:31.916Z,99182.97
2023-08-07T07:58:14.979Z,99185.06
2023-08-07T07:59:41.836Z,99184.81
2023-08-07T08:01:37.300Z,99181.41
2023-08-07T08:03:41.850Z,99181.38
2023-08-07T08:05:35.871Z,99173.09
2023-08-07T08:06:40.616Z,99175.41
2023-08-07T08:11:07.096Z,99182.19
2023-08-07T08:11:49.374Z,99183.56
2023-08-07T08:12:30.871Z,99175.91
2023-08-07T08:13:10.748Z,99185.44
2023-08-07T08:13:57.735Z,99180.44
2023-08-07T08:14:50.551Z,99174.22
2023-08-07T08:15:31.958Z,99177.78
2023-08-07T08:16:26.724Z,99175.75
2023-08-07T08:17:08.343Z,99182.72
2023-08-07T08:18:15.504Z,99185.13
2023-08-07T08:18:52.533Z,99187.34
2023-08-07T08:19:41.979Z,99184.22
2023-08-07T08:20:27.922Z,99179.38
2023-08-07T08:21:02.053Z,99183.75
2023-08-07T08:22:32.556Z,99176.41
2023-08-07T08:23:18.686Z,99179.53
2023-08-07T08:24:38.021Z,99177.81
2023-08-07T08:26:38.086Z,99194.47
2023-08-07T08:27:19.780Z,99186.91
2023-08-07T08:27:55.561Z,99195.78
2023-08-07T08:28:37.360Z,99180.63
2023-08-07T08:29:19.506Z,99184.69
2023-08-07T08:29:56.471Z,99191.47
2023-08-07T08:30:52.877Z,99191.84
2023-08-07T08:32:17.841Z,99188.16
2023-08-07T08:32:51.743Z,99197.03
2023-08-07T08:33:27.285Z,99190.91
2023-08-07T08:34:05.842Z,99192.34
2023-08-07T08:34:51.965Z,99187.56
2023-08-07T08:35:27.870Z,99190.81
2023-08-07T08:36:02.016Z,99193.69
2023-08-07T08:36:37.267Z,99182.03
2023-08-07T08:37:29.460Z,99189.16
2023-08-07T08:38:38.636Z,99191.72
2023-08-07T08:39:14.981Z,99192.38
2023-08-07T08:40:30.752Z,99190.63
2023-08-07T08:42:00.360Z,99191.63
2023-08-07T08:42:44.135Z,99191.72
2023-08-07T08:44:23.758Z,99202.75
2023-08-07T08:45:39.225Z,99200.84
2023-08-07T08:46:13.291Z,99208.31
2023-08-07T08:47:23.010Z,99199.78
2023-08-07T08:50:10.986Z,99201.56
2023-08-07T08:50:56.687Z,99206.53
2023-08-07T08:51:57.007Z,99213.59
2023-08-07T08:54:31.918Z,99212.22
2023-08-07T08:55:23.712Z,99208.09
2023-08-07T08:55:56.817Z,99215.50
2023-08-07T08:56:35.261Z,99219.13
2023-08-07T08:57:14.061Z,99213.06
2023-08-07T08:57:51.727Z,99210.47
2023-08-07T08:58:26.052Z,99214.59
2023-08-07T08:59:02.482Z,99210.13
2023-08-07T08:59:37.232Z,99214.78
2023-08-07T09:00:19.247Z,99219.19
2023-08-07T09:01:00.325Z,99213.94
2023-08-07T09:01:39.738Z,99217.13
2023-08-07T09:02:18.685Z,99218.34
2023-08-07T09:02:54.694Z,99220.84
2023-08-07T09:03:31.112Z,99218.78
2023-08-07T09:04:07.521Z,99219.69
2023-08-07T09:04:53.187Z,99211.28
2023-08-07T09:05:28.999Z,99213.00
2023-08-07T09:06:08.250Z,99205.16
2023-08-07T09:06:44.403Z,99208.09
2023-08-07T09:07:18.405Z,99202.44
2023-08-07T09:07:54.308Z,99207.66
2023-08-07T09:08:33.252Z,99209.50
2023-08-07T09:09:11.172Z,99210.28
2023-08-07T09:09:49.427Z,99211.63
2023-08-07T09:10:28.104Z,99209.72
2023-08-07T09:11:02.116Z,99205.38
2023-08-07T09:11:36.041Z,99210.03
2023-08-07T09:12:22.519Z,99203.63
2023-08-07T09:13:06.494Z,99216.59
2023-08-07T09:13:44.464Z,99214.22
2023-08-07T09:14:32.938Z,99218.19
2023-08-07T09:15:12.925Z,99208.47
2023-08-07T09:15:53.082Z,99210.47
2023-08-07T09:16:29.694Z,99208.78
2023-08-07T09:17:46.107Z,99203.97
2023-08-07T09:18:21.688Z,99209.41
2023-08-07T09:18:57.639Z,99205.63
2023-08-07T09:19:31.956Z,99206.66
2023-08-07T09:20:13.081Z,99201.25
2023-08-07T09:20:49.796Z,99213.50
2023-08-07T09:21:27.623Z,99214.47
2023-08-07T09:22:00.451Z,99212.41
2023-08-07T09:22:33.824Z,99206.59
2023-08-07T09:23:07.416Z,99210.28
2023-08-07T09:25:42.959Z,99203.44
2023-08-07T09:26:28.452Z,99196.72
2023-08-07T09:27:03.642Z,99205.72
2023-08-07T09:27:41.063Z,99197.06
2023-08-07T09:28:28.660Z,99195.50
2023-08-07T09:29:04.489Z,99195.53
2023-08-07T09:30:14.108Z,99193.56
2023-08-07T09:30:49.570Z,99202.28
2023-08-07T09:31:29.562Z,99196.63
2023-08-07T09:32:20.350Z,99204.53
2023-08-07T09:32:55.842Z,99198.34
2023-08-07T09:33:31.869Z,99193.28
2023-08-07T09:34:10.282Z,99205.50
2023-08-07T09:34:45.792Z,99202.13
2023-08-07T09:35:23.544Z,99199.59
2023-08-07T09:36:05.673Z,99196.16
2023-08-07T09:37:14.140Z,99203.50
2023-08-07T09:37:49.441Z,99203.56
2023-08-07T09:38:58.318Z,99198.84
2023-08-07T09:40:20.085Z,99202.09
2023-08-07T09:41:30.560Z,99208.84
2023-08-07T09:42:03.405Z,99207.28
2023-08-07T09:42:39.611Z,99207.63
2023-08-07T09:43:47.754Z,99211.19
2023-08-07T09:44:24.550Z,99203.03
2023-08-07T09:45:02.071Z,99200.88
2023-08-07T09:46:11.068Z,99204.53
2023-08-07T09:46:46.994Z,99202.28
2023-08-07T09:47:20.844Z,99205.56
2023-08-07T09:48:02.542Z,99204.97
2023-08-07T09:48:55.029Z,99204.28
2023-08-07T09:49:34.151Z,99213.69
2023-08-07T09:50:21.486Z,99207.75
2023-08-07T09:51:04.603Z,99212.28
2023-08-07T09:51:56.814Z,99205.75
2023-08-07T09:53:08.062Z,99206.31
2023-08-07T09:53:41.795Z,99210.56
2023-08-07T09:54:15.487Z,99206.31
2023-08-07T09:54:49.069Z,99216.34
2023-08-07T09:55:24.556Z,99208.09
2023-08-07T09:56:03.611Z,99215.81
2023-08-07T09:56:36.500Z,99216.31
2023-08-07T09:57:12.233Z,99204.13
2023-08-07T09:57:51.524Z,99213.53
2023-08-07T09:59:00.157Z,99214.94
2023-08-07T09:59:43.436Z,99211.91
2023-08-07T10:00:21.392Z,99203.56
2023-08-07T10:01:05.757Z,99200.03
2023-08-07T10:01:44.026Z,99206.72
2023-08-07T10:02:19.327Z,99200.53
2023-08-07T10:02:58.875Z,99206.22
2023-08-07T10:03:33.498Z,99199.03
2023-08-07T10:04:08.511Z,99205.63
2023-08-07T10:04:53.930Z,99203.06
2023-08-07T10:05:32.084Z,99199.34
2023-08-07T10:06:07.670Z,99196.69
2023-08-07T10:06:41.100Z,99207.91
2023-08-07T10:07:17.529Z,99201.59
2023-08-07T10:07:53.188Z,99193.03
2023-08-07T10:08:27.432Z,99199.38
2023-08-07T10:09:03.644Z,99198.16
2023-08-07T10:09:40.517Z,99207.19
2023-08-07T10:10:20.459Z,99199.34
2023-08-07T10:10:55.912Z,99197.75
2023-08-07T10:11:31.452Z,99200.25
2023-08-07T10:12:07.490Z,99196.97
2023-08-07T10:12:43.486Z,99194.25
2023-08-07T10:13:25.870Z,99197.31
2023-08-07T10:14:15.982Z,99209.00
2023-08-07T10:14:50.256Z,99211.66
2023-08-07T10:16:54.866Z,99203.22
2023-08-07T10:17:29.451Z,99204.88
2023-08-07T10:18:03.147Z,99196.97
2023-08-07T10:18:39.080Z,99204.91
2023-08-07T10:19:15.135Z,99207.97
2023-08-07T10:20:02.103Z,99207.38
2023-08-07T10:20:38.613Z,99211.53
2023-08-07T10:21:13.224Z,99213.69
2023-08-07T10:21:56.444Z,99207.75
2023-08-07T10:22:33.336Z,99206.06
2023-08-07T10:23:08.599Z,99218.72
2023-08-07T10:23:51.286Z,99212.19
2023-08-07T10:24:28.577Z,99197.88
2023-08-07T10:25:04.607Z,99205.59
2023-08-07T10:25:44.291Z,99194.78
2023-08-07T10:26:24.108Z,99205.28
2023-08-07T10:27:01.631Z,99200.84
2023-08-07T10:27:38.550Z,99203.28
2023-08-07T10:28:16.820Z,99194.56
2023-08-07T10:29:29.328Z,99204.00
2023-08-07T10:30:09.166Z,99204.06
2023-08-07T10:30:45.540Z,99195.59
2023-08-07T10:31:19.552Z,99203.63
2023-08-07T10:31:58.205Z,99204.38
2023-08-07T10:32:39.773Z,99202.44
2023-08-07T10:33:16.141Z,99193.75
2023-08-07T10:33:52.424Z,99197.84
2023-08-07T10:34:31.479Z,99203.09
2023-08-07T10:35:07.479Z,99193.47
2023-08-07T10:35:49.718Z,99199.47
2023-08-07T10:36:25.071Z,99197.47
2023-08-07T10:36:58.323Z,99186.78
2023-08-07T10:37:46.324Z,99200.41
2023-08-07T10:38:25.308Z,99197.22
2023-08-07T10:39:15.055Z,99200.34
2023-08-07T10:40:23.736Z,99204.09
2023-08-07T10:41:15.730Z,99201.94
2023-08-07T10:42:24.878Z,99191.72
2023-08-07T10:43:01.591Z,99205.66
2023-08-07T10:43:43.776Z,99200.13
2023-08-07T10:44:27.360Z,99215.84
2023-08-07T10:45:03.354Z,99200.44
2023-08-07T10:45:40.299Z,99215.84
2023-08-07T10:46:47.403Z,99210.00
2023-08-07T10:47:35.569Z,99216.44
2023-08-07T10:48:19.131Z,99217.00
2023-08-07T10:49:40.218Z,99214.16
2023-08-07T10:50:17.632Z,99201.19
2023-08-07T10:51:01.748Z,99204.78
2023-08-07T10:51:37.175Z,99201.38
2023-08-07T10:52:16.641Z,99200.03
2023-08-07T10:52:53.822Z,99193.91
2023-08-07T10:53:38.296Z,99204.25
2023-08-07T10:54:14.015Z,99198.16
2023-08-07T10:54:51.448Z,99206.94
2023-08-07T10:55:25.127Z,99195.22
2023-08-07T10:56:05.605Z,99197.78
2023-08-07T10:56:43.370Z,99199.19
2023-08-07T10:57:19.648Z,99194.81
2023-08-07T10:57:55.752Z,99198.94
2023-08-07T10:58:32.040Z,99201.41
2023-08-07T10:59:53.069Z,99211.72
2023-08-07T11:00:30.991Z,99208.53
2023-08-07T11:01:28.708Z,99207.59
2023-08-07T11:02:02.164Z,99210.56
2023-08-07T11:02:42.137Z,99208.38
2023-08-07T11:03:28.603Z,99208.50
2023-08-07T11:04:02.372Z,99213.66
2023-08-07T11:04:37.804Z,99209.75
2023-08-07T11:05:45.107Z,99213.97
2023-08-07T11:06:56.366Z,99223.41
2023-08-07T11:07:32.321Z,99221.03
2023-08-07T11:08:06.279Z,99216.88
2023-08-07T11:08:42.636Z,99208.72
2023-08-07T11:09:19.262Z,99208.94
2023-08-07T11:09:53.414Z,99200.00
2023-08-07T11:10:29.043Z,99202.84
2023-08-07T11:11:07.335Z,99200.84
2023-08-07T11:11:48.240Z,99203.34
2023-08-07T11:12:25.393Z,99200.69
2023-08-07T11:13:01.050Z,99195.81
2023-08-07T11:13:35.284Z,99208.69
2023-08-07T11:14:10.188Z,99204.38
2023-08-07T11:14:43.539Z,99203.22
2023-08-07T11:15:17.236Z,99206.44
2023-08-07T11:15:52.621Z,99204.53
2023-08-07T11:16:35.389Z,99215.91
2023-08-07T11:17:11.241Z,99212.25
2023-08-07T11:17:47.474Z,99202.66
2023-08-07T11:18:20.548Z,99210.34
2023-08-07T11:19:26.766Z,99214.19
2023-08-07T11:20:02.939Z,99214.03
2023-08-07T11:20:39.778Z,99223.28
2023-08-07T11:21:15.056Z,99216.81
2023-08-07T11:21:49.556Z,99227.22
2023-08-07T11:22:23.817Z,99217.75
2023-08-07T11:23:01.057Z,99228.59
2023-08-07T11:23:37.175Z,99228.19
2023-08-07T11:24:14.801Z,99227.16
2023-08-07T11:25:23.015Z,99239.72
2023-08-07T11:25:56.603Z,99239.28
2023-08-07T11:26:30.859Z,99250.38
2023-08-07T11:27:06.278Z,99262.97
2023-08-07T11:27:44.611Z,99275.66
2023-08-07T11:28:26.883Z,99276.84
2023-08-07T11:28:59.506Z,99265.03
2023-08-07T11:29:43.986Z,99280.34
2023-08-07T11:30:25.323Z,99288.66
2023-08-07T11:31:54.450Z,99297.25
2023-08-07T11:33:08.612Z,99309.56
2023-08-07T11:33:57.039Z,99306.66
2023-08-07T11:35:19.711Z,99293.72
2023-08-07T11:45:54.874Z,99319.66
2023-08-07T11:50:07.543Z,99347.75
2023-08-07T11:51:18.771Z,99350.06
2023-08-07T11:52:33.468Z,99373.91
2023-08-07T11:53:27.502Z,99396.97
2023-08-07T11:57:32.652Z,99398.00
2023-08-07T12:10:20.694Z,99375.44
2023-08-07T12:12:25.095Z,99386.41
2023-08-07T12:15:21.648Z,99394.88
2023-08-07T12:17:52.243Z,99378.75
2023-08-07T12:18:40.449Z,99383.50
2023-08-07T12:20:40.635Z,99375.97
2023-08-07T12:21:24.100Z,99378.00
2023-08-07T12:32:17.167Z,99355.41
2023-08-07T12:35:22.499Z,99345.78
2023-08-07T12:35:59.860Z,99353.25
2023-08-07T12:36:56.617Z,99349.19
2023-08-07T12:40:49.895Z,99349.09
2023-08-07T12:42:31.621Z,99349.25
2023-08-07T12:43:40.599Z,99341.59
2023-08-07T12:44:38.095Z,99341.94
2023-08-07T12:46:47.050Z,99342.22
2023-08-07T12:47:21.382Z,99339.44
2023-08-07T12:47:55.750Z,99341.72
2023-08-07T12:48:31.438Z,99339.63
2023-08-07T12:50:01.546Z,99344.31
2023-08-07T12:50:38.152Z,99333.44
2023-08-07T12:51:13.710Z,99337.00
2023-08-07T12:51:49.320Z,99338.34
2023-08-07T12:52:23.324Z,99337.00
2023-08-07T12:53:00.177Z,99336.19
2023-08-07T12:53:34.143Z,99325.03
2023-08-07T12:54:10.371Z,99331.28
2023-08-07T12:54:45.998Z,99329.19
2023-08-07T12:55:21.193Z,99330.97
2023-08-07T12:55:55.218Z,99332.59
2023-08-07T12:56:29.698Z,99324.06
2023-08-07T12:57:05.272Z,99325.59
2023-08-07T12:57:45.279Z,99323.00
2023-08-07T12:58:21.955Z,99324.84
2023-08-07T12:58:57.570Z,99323.69
2023-08-07T12:59:33.017Z,99324.69
2023-08-07T13:00:09.860Z,99323.22
2023-08-07T13:00:45.167Z,99316.69
2023-08-07T13:01:20.489Z,99323.72
2023-08-07T13:01:56.343Z,99316.50
2023-08-07T13:02:30.011Z,99317.31
2023-08-07T13:03:05.148Z,99315.69
2023-08-07T13:03:44.116Z,99315.13
2023-08-07T13:04:18.575Z,99315.16
2023-08-07T13:04:55.260Z,99315.88
2023-08-07T13:11:33.019Z,99318.50
2023-08-07T13:12:43.825Z,99308.75
2023-08-07T13:13:19.172Z,99311.84
2023-08-07T13:13:54.241Z,99304.03
2023-08-07T13:14:29.512Z,99309.47
2023-08-07T13:15:04.621Z,99317.25
2023-08-07T13:15:40.265Z,99313.16
2023-08-07T13:16:15.836Z,99316.16
2023-08-07T13:16:52.356Z,99305.56
2023-08-07T13:17:28.051Z,99317.63
2023-08-07T13:18:04.463Z,99319.25
2023-08-07T13:18:40.177Z,99314.25
2023-08-07T13:19:15.187Z,99312.97
2023-08-07T13:19:48.258Z,99309.19
2023-08-07T13:20:21.768Z,99310.06
2023-08-07T13:20:53.706Z,99314.50
2023-08-07T13:22:00.405Z,99312.44
2023-08-07T13:22:34.157Z,99304.34
2023-08-07T13:23:40.209Z,99307.78
2023-08-07T13:24:14.555Z,99310.69
2023-08-07T13:24:51.212Z,99310.22
2023-08-07T13:25:26.687Z,99306.47
2023-08-07T13:26:02.318Z,99310.41
2023-08-07T13:26:36.513Z,99311.28
2023-08-07T13:27:10.611Z,99310.34
2023-08-07T13:27:46.240Z,99316.44
2023-08-07T13:28:21.278Z,99304.81
2023-08-07T13:28:57.264Z,99300.09
2023-08-07T13:29:32.240Z,99309.28
2023-08-07T13:30:05.367Z,99303.56
2023-08-07T13:30:39.098Z,99305.31
2023-08-07T13:31:47.755Z,99303.78
2023-08-07T13:32:23.258Z,99304.16
2023-08-07T13:33:31.886Z,99311.09
2023-08-07T13:34:09.906Z,99315.56
2023-08-07T13:34:43.043Z,99304.34
2023-08-07T13:35:18.247Z,99310.38
2023-08-07T13:35:50.964Z,99300.38
2023-08-07T13:36:22.900Z,99298.53
2023-08-07T13:37:00.172Z,99301.53
2023-08-07T13:37:35.236Z,99308.16
2023-08-07T13:38:09.262Z,99303.56
2023-08-07T13:38:46.114Z,99304.28
2023-08-07T13:39:21.264Z,99309.13
2023-08-07T13:39:54.305Z,99310.59
2023-08-07T13:40:32.760Z,99307.97
2023-08-07T13:41:08.131Z,99310.59
2023-08-07T13:41:43.287Z,99312.88
2023-08-07T13:42:18.286Z,99306.81
2023-08-07T13:42:50.311Z,99314.16
2023-08-07T13:43:22.541Z,99311.00
2023-08-07T13:43:56.532Z,99309.34
2023-08-07T13:44:30.289Z,99306.44
2023-08-07T13:45:03.594Z,99303.72
2023-08-07T13:45:41.312Z,99313.94
2023-08-07T13:46:16.687Z,99311.31
2023-08-07T13:46:52.581Z,99300.97
2023-08-07T13:47:32.754Z,99309.88
2023-08-07T13:48:11.463Z,99307.47
2023-08-07T13:48:45.852Z,99308.78
2023-08-07T13:49:52.948Z,99320.22
2023-08-07T13:50:25.190Z,99317.31
2023-08-07T13:51:02.298Z,99316.63
2023-08-07T13:51:38.159Z,99316.38
2023-08-07T13:52:13.592Z,99317.72
2023-08-07T13:53:21.111Z,99313.72
2023-08-07T13:53:54.682Z,99322.56
2023-08-07T13:54:28.408Z,99320.81
2023-08-07T13:55:02.428Z,99309.97
2023-08-07T13:55:49.091Z,99313.34
2023-08-07T13:56:24.996Z,99322.81
2023-08-07T13:56:58.358Z,99313.44
2023-08-07T13:57:30.407Z,99322.06
2023-08-07T13:58:02.416Z,99318.16
2023-08-07T13:59:10.850Z,99316.97
2023-08-07T13:59:46.039Z,99315.22
2023-08-07T14:00:21.376Z,99326.00
2023-08-07T14:00:58.526Z,99312.09
2023-08-07T14:01:34.452Z,99309.44
2023-08-07T14:02:39.736Z,99315.59
2023-08-07T14:03:16.130Z,99305.75
2023-08-07T14:03:49.361Z,99315.88
2023-08-07T14:04:54.771Z,99316.44
2023-08-07T14:05:30.325Z,99311.34
2023-08-07T14:06:05.514Z,99305.81
2023-08-07T14:06:51.951Z,99303.13
2023-08-07T14:07:23.887Z,99312.22
2023-08-07T14:07:59.636Z,99302.75
2023-08-07T14:08:34.089Z,99309.31
2023-08-07T14:09:10.553Z,99311.78
2023-08-07T14:09:46.264Z,99317.59
2023-08-07T14:10:18.777Z,99319.63
2023-08-07T14:11:28.903Z,99321.66
2023-08-07T14:12:01.015Z,99309.97
2023-08-07T14:12:32.972Z,99309.31
2023-08-07T14:13:04.965Z,99312.97
2023-08-07T14:13:40.260Z,99312.31
2023-08-07T14:14:15.247Z,99309.38
2023-08-07T14:14:47.647Z,99316.88
2023-08-07T14:15:55.858Z,99318.16
2023-08-07T14:16:27.963Z,99314.03
2023-08-07T14:17:34.941Z,99314.78
2023-08-07T14:18:07.723Z,99313.50
2023-08-07T14:18:40.222Z,99317.69
2023-08-07T14:19:12.396Z,99313.78
2023-08-07T14:19:44.517Z,99311.59
2023-08-07T14:21:02.170Z,99319.06
2023-08-07T14:21:42.242Z,99308.84
2023-08-07T14:22:20.951Z,99320.38
2023-08-07T14:22:56.875Z,99311.75
2023-08-07T14:23:34.958Z,99318.94
2023-08-07T14:24:11.931Z,99314.22
2023-08-07T14:24:48.561Z,99314.84
2023-08-07T14:25:32.975Z,99310.19
2023-08-07T14:26:08.277Z,99314.28
2023-08-07T14:26:43.901Z,99306.44
2023-08-07T14:27:15.975Z,99316.22
2023-08-07T14:27:54.267Z,99317.56
2023-08-07T14:28:32.060Z,99314.84
2023-08-07T14:29:09.439Z,99321.00
2023-08-07T14:30:16.781Z,99316.19
2023-08-07T14:30:52.420Z,99314.50
2023-08-07T14:31:26.409Z,99326.38
2023-08-07T14:32:34.941Z,99312.75
2023-08-07T14:33:08.483Z,99313.66
2023-08-07T14:33:40.561Z,99315.66
2023-08-07T14:34:50.398Z,99318.88
2023-08-07T14:35:24.314Z,99308.94
2023-08-07T14:35:57.368Z,99314.03
2023-08-07T14:36:29.622Z,99310.72
2023-08-07T14:37:38.298Z,99320.38
2023-08-07T14:38:51.702Z,99313.59
2023-08-07T14:39:28.573Z,99315.81
2023-08-07T14:40:04.266Z,99326.19
2023-08-07T14:40:42.205Z,99317.88
2023-08-07T14:41:18.365Z,99316.13
2023-08-07T14:42:26.941Z,99320.88
2023-08-07T14:42:59.100Z,99326.63
2023-08-07T14:44:06.004Z,99320.41
2023-08-07T14:44:37.930Z,99316.06
2023-08-07T14:45:44.894Z,99323.53
2023-08-07T14:46:21.769Z,99320.97
2023-08-07T14:46:53.972Z,99323.38
2023-08-07T14:48:00.338Z,99321.81
2023-08-07T14:48:33.338Z,99322.69
2023-08-07T14:49:06.312Z,99313.41
2023-08-07T14:50:13.679Z,99323.75
2023-08-07T14:50:49.447Z,99322.19
2023-08-07T14:51:28.224Z,99313.88
2023-08-07T14:52:03.576Z,99323.13
2023-08-07T14:52:36.713Z,99331.94
2023-08-07T14:53:08.888Z,99332.66
2023-08-07T14:54:13.712Z,99321.81
2023-08-07T14:54:45.761Z,99330.47
2023-08-07T14:55:19.094Z,99333.00
2023-08-07T14:55:51.275Z,99325.94
2023-08-07T14:56:29.293Z,99325.25
2023-08-07T14:57:04.901Z,99333.81
2023-08-07T14:57:40.404Z,99334.56
2023-08-07T14:58:18.155Z,99331.66
2023-08-07T14:58:53.910Z,99342.00
2023-08-07T14:59:29.319Z,99329.44
2023-08-07T15:00:02.874Z,99330.84
2023-08-07T15:00:39.531Z,99336.75
2023-08-07T15:01:16.620Z,99330.31
2023-08-07T15:01:52.053Z,99336.63
2023-08-07T15:02:27.218Z,99345.78
2023-08-07T15:03:00.255Z,99341.84
2023-08-07T15:03:38.462Z,99349.50
2023-08-07T15:04:15.370Z,99345.41
2023-08-07T15:04:49.548Z,99343.00
2023-08-07T15:05:23.238Z,99340.66
2023-08-07T15:06:01.246Z,99338.19
2023-08-07T15:06:40.633Z,99344.38
2023-08-07T15:07:14.353Z,99339.00
2023-08-07T15:07:49.336Z,99343.91
2023-08-07T15:08:57.295Z,99333.97
2023-08-07T15:09:35.301Z,99340.28
2023-08-07T15:10:10.638Z,99352.44
2023-08-07T15:10:49.341Z,99356.06
2023-08-07T15:11:26.249Z,99354.53
2023-08-07T15:12:33.403Z,99351.78
2023-08-07T15:13:08.734Z,99348.75
2023-08-07T15:13:48.606Z,99345.06
2023-08-07T15:14:22.538Z,99348.38
2023-08-07T15:14:56.355Z,99353.38
2023-08-07T15:15:31.421Z,99354.22
2023-08-07T15:16:06.423Z,99360.84
2023-08-07T15:16:42.933Z,99356.59
2023-08-07T15:17:18.384Z,99359.34
2023-08-07T15:17:53.905Z,99363.13
2023-08-07T15:18:29.471Z,99367.53
2023-08-07T15:19:06.150Z,99362.56
2023-08-07T15:19:41.380Z,99364.13
2023-08-07T15:20:17.536Z,99365.75
2023-08-07T15:20:50.358Z,99375.03
2023-08-07T15:21:55.957Z,99377.00
2023-08-07T15:22:34.092Z,99373.44
2023-08-07T15:23:07.771Z,99378.41
2023-08-07T15:23:41.372Z,99383.03
2023-08-07T15:24:19.235Z,99376.88
2023-08-07T15:24:54.316Z,99372.13
2023-08-07T15:25:29.645Z,99367.66
2023-08-07T15:26:03.363Z,99369.78
2023-08-07T15:26:38.393Z,99379.78
2023-08-07T15:27:11.430Z,99375.50
2023-08-07T15:28:18.003Z,99378.47
2023-08-07T15:28:53.503Z,99378.34
2023-08-07T15:29:36.911Z,99382.59
2023-08-07T15:30:09.814Z,99378.91
2023-08-07T15:30:50.935Z,99371.41
2023-08-07T15:31:59.771Z,99387.53
2023-08-07T15:32:33.581Z,99384.22
2023-08-07T15:33:10.295Z,99381.72
2023-08-07T15:33:48.500Z,99380.06
2023-08-07T15:34:24.451Z,99386.25
2023-08-07T15:35:02.990Z,99385.53
2023-08-07T15:35:41.725Z,99391.09
2023-08-07T15:36:17.864Z,99389.81
2023-08-07T15:36:53.304Z,99386.84
2023-08-07T15:37:28.389Z,99393.97
2023-08-07T15:38:09.149Z,99382.94
2023-08-07T15:38:44.572Z,99386.25
2023-08-07T15:39:18.759Z,99388.25
2023-08-07T15:39:54.297Z,99391.22
2023-08-07T15:40:26.326Z,99385.66
2023-08-07T15:41:35.330Z,99383.81
2023-08-07T15:42:07.899Z,99385.22
2023-08-07T15:43:14.992Z,99399.38
2023-08-07T15:43:53.601Z,99402.09
2023-08-07T15:44:27.277Z,99397.22
2023-08-07T15:45:00.438Z,99392.72
2023-08-07T15:45:33.340Z,99394.25
2023-08-07T15:46:08.431Z,99396.97
2023-08-07T15:46:42.496Z,99399.38
2023-08-07T15:47:17.535Z,99394.50
2023-08-07T15:47:53.834Z,99395.44
2023-08-07T15:48:30.599Z,99402.13
2023-08-07T15:49:03.481Z,99399.50
2023-08-07T15:49:39.420Z,99397.00
2023-08-07T15:50:12.315Z,99397.94
2023-08-07T15:51:21.217Z,99407.19
2023-08-07T15:51:56.646Z,99404.84
2023-08-07T15:52:30.380Z,99397.81
2023-08-07T15:53:06.664Z,99399.03
2023-08-07T15:53:42.347Z,99405.19
2023-08-07T15:54:17.394Z,99407.56
2023-08-07T15:54:49.488Z,99404.84
2023-08-07T15:55:25.552Z,99404.59
2023-08-07T15:55:59.552Z,99403.28
2023-08-07T15:56:33.532Z,99407.47
2023-08-07T15:57:07.631Z,99413.25
2023-08-07T15:57:46.539Z,99405.44
2023-08-07T15:58:23.843Z,99401.88
2023-08-07T15:58:59.406Z,99405.78
2023-08-07T15:59:34.329Z,99407.47
2023-08-07T16:00:11.125Z,99407.47
2023-08-07T16:00:45.061Z,99406.13
2023-08-07T16:01:18.629Z,99409.13
2023-08-07T16:01:52.547Z,99406.63
2023-08-07T16:02:28.339Z,99405.19
2023-08-07T16:03:03.751Z,99401.75
2023-08-07T16:03:38.058Z,99399.25
2023-08-07T16:04:11.773Z,99410.06
2023-08-07T16:04:47.441Z,99411.50
2023-08-07T16:05:21.936Z,99404.75
2023-08-07T16:05:55.508Z,99408.50
2023-08-07T16:07:16.372Z,99409.84
2023-08-07T16:08:25.012Z,99410.28
2023-08-07T16:09:00.459Z,99411.03
2023-08-07T16:09:35.526Z,99406.53
2023-08-07T16:10:13.926Z,99409.34
2023-08-07T16:10:45.885Z,99416.38
2023-08-07T16:11:52.465Z,99414.09
2023-08-07T16:12:27.648Z,99419.69
2023-08-07T16:13:01.715Z,99421.09
2023-08-07T16:14:08.865Z,99415.88
2023-08-07T16:14:41.928Z,99420.75
2023-08-07T16:15:17.639Z,99422.53
2023-08-07T16:15:50.630Z,99419.66
2023-08-07T16:16:26.800Z,99423.13
2023-08-07T16:17:00.970Z,99418.81
2023-08-07T16:17:39.507Z,99425.84
2023-08-07T16:18:17.461Z,99423.81
2023-08-07T16:18:49.511Z,99423.81
2023-08-07T16:19:57.678Z,99436.22
2023-08-07T16:20:33.430Z,99425.41
2023-08-07T16:21:06.538Z,99438.34
2023-08-07T16:21:41.573Z,99440.75
2023-08-07T16:22:14.699Z,99425.06
2023-08-07T16:22:52.001Z,99431.28
2023-08-07T16:23:27.526Z,99434.63
2023-08-07T16:24:02.715Z,99430.72
2023-08-07T16:24:36.741Z,99440.72
2023-08-07T16:25:12.124Z,99438.38
2023-08-07T16:25:47.487Z,99428.63
2023-08-07T16:26:21.115Z,99447.63
2023-08-07T16:26:59.392Z,99436.41
2023-08-07T16:27:33.195Z,99442.56
2023-08-07T16:28:14.003Z,99443.38
2023-08-07T16:28:49.233Z,99444.22
2023-08-07T16:29:24.700Z,99432.84
2023-08-07T16:30:04.388Z,99442.31
2023-08-07T16:30:39.607Z,99432.44
2023-08-07T16:31:47.957Z,99446.00
2023-08-07T16:32:23.621Z,99433.34
2023-08-07T16:32:58.672Z,99441.72
2023-08-07T16:33:32.634Z,99434.53
2023-08-07T16:34:06.439Z,99442.44
2023-08-07T16:34:41.546Z,99437.19
2023-08-07T16:35:19.020Z,99429.63
2023-08-07T16:35:59.678Z,99431.81
2023-08-07T16:36:33.684Z,99438.16
2023-08-07T16:37:18.555Z,99447.72
2023-08-07T16:37:53.843Z,99434.59
2023-08-07T16:38:29.520Z,99440.59
2023-08-07T16:39:04.896Z,99438.31
2023-08-07T16:39:40.620Z,99442.28
2023-08-07T16:40:15.601Z,99434.25
2023-08-07T16:40:50.597Z,99449.78
2023-08-07T16:41:24.296Z,99449.63
2023-08-07T16:41:59.744Z,99455.22
2023-08-07T16:42:33.768Z,99445.38
2023-08-07T16:43:08.469Z,99457.63
2023-08-07T16:43:43.590Z,99455.97
2023-08-07T16:44:18.635Z,99458.03
2023-08-07T16:44:54.213Z,99459.63
2023-08-07T16:46:02.617Z,99459.84
2023-08-07T16:46:42.934Z,99472.25
2023-08-07T16:47:18.617Z,99459.84
2023-08-07T16:47:53.513Z,99458.84
2023-08-07T16:48:28.770Z,99460.09
2023-08-07T16:49:04.656Z,99465.28
2023-08-07T16:49:40.060Z,99473.81
2023-08-07T16:51:07.325Z,99461.34
2023-08-07T16:51:42.669Z,99464.13
2023-08-07T16:52:17.916Z,99469.50
2023-08-07T16:52:51.583Z,99469.50
2023-08-07T16:53:26.775Z,99469.34
2023-08-07T16:54:02.608Z,99474.66
2023-08-07T16:54:37.770Z,99467.97
2023-08-07T16:55:45.602Z,99473.91
2023-08-07T16:56:20.826Z,99469.88
2023-08-07T16:56:55.564Z,99471.06
2023-08-07T16:57:30.444Z,99473.78
2023-08-07T16:58:05.795Z,99478.88
2023-08-07T16:58:45.115Z,99480.09
2023-08-07T16:59:19.270Z,99475.91
2023-08-07T16:59:53.316Z,99481.13
2023-08-07T17:00:28.852Z,99484.22
2023-08-07T17:01:04.318Z,99486.56
2023-08-07T17:01:39.618Z,99485.50
2023-08-07T17:02:13.456Z,99489.28
2023-08-07T17:02:48.964Z,99486.41
2023-08-07T17:03:27.223Z,99485.72
2023-08-07T17:04:02.655Z,99488.44
2023-08-07T17:04:36.759Z,99487.81
2023-08-07T17:05:10.704Z,99477.84